Time;durP1;ratioP1;P1;durP2;ratioP2;P2;SDS_P1;SDS_P2;PMS_P1;PMS_P2;Temp;Humidity;BMP_temperature;BMP_pressure;BME280_temperature;BME280_humidity;BME280_pressure;Samples;Min_cycle;Max_cycle;Signal;HPM_P1;HPM_P2
2021/09/14 00:01:30;;;;;;;7.60;3.60;;;;;;;;;;5082037;28;20040;-72
2021/09/14 00:03:56;;;;;;;10.77;4.90;;;;;;;;;;5085777;28;20044;-71
2021/09/14 00:06:23;;;;;;;7.07;3.38;;;;;;;;;;5080570;28;20126;-71
2021/09/14 00:08:49;;;;;;;7.63;3.22;;;;;;;;;;5106813;28;20050;-71
2021/09/14 00:11:15;;;;;;;8.20;3.63;;;;;;;;;;5104337;28;20048;-71
2021/09/14 00:13:41;;;;;;;10.27;3.42;;;;;;;;;;5103878;28;20177;-71
2021/09/14 00:16:07;;;;;;;9.75;3.63;;;;;;;;;;5085800;28;20118;-71
2021/09/14 00:18:33;;;;;;;9.45;4.03;;;;;;;;;;5081438;28;20032;-71
2021/09/14 00:21:00;;;;;;;8.77;4.07;;;;;;;;;;5102085;28;20054;-71
2021/09/14 00:23:26;;;;;;;8.68;3.97;;;;;;;;;;5106588;28;20047;-71
2021/09/14 00:25:52;;;;;;;5.90;3.63;;;;;;;;;;5103837;28;20027;-71
2021/09/14 00:28:18;;;;;;;6.07;3.45;;;;;;;;;;5088231;28;20146;-71
2021/09/14 00:30:44;;;;;;;7.50;3.33;;;;;;;;;;5082686;28;20047;-71
2021/09/14 00:33:11;;;;;;;10.85;3.70;;;;;;;;;;5086612;28;20051;-71
2021/09/14 00:35:37;;;;;;;8.73;4.00;;;;;;;;;;5087848;28;20394;-71
2021/09/14 00:38:04;;;;;;;8.30;3.88;;;;;;;;;;5106878;28;20378;-71
2021/09/14 00:40:30;;;;;;;7.70;3.67;;;;;;;;;;5084458;28;20130;-71
2021/09/14 00:42:56;;;;;;;9.98;3.80;;;;;;;;;;5081585;28;20395;-71
2021/09/14 00:45:22;;;;;;;8.23;4.05;;;;;;;;;;5080029;28;20056;-71
2021/09/14 00:47:48;;;;;;;8.43;3.92;;;;;;;;;;5083070;28;20075;-71
2021/09/14 00:50:15;;;;;;;9.63;4.55;;;;;;;;;;5083697;28;20043;-71
2021/09/14 00:52:41;;;;;;;16.67;3.60;;;;;;;;;;5081032;28;20044;-71
2021/09/14 00:55:08;;;;;;;8.07;3.80;;;;;;;;;;5083654;28;20048;-71
2021/09/14 00:57:34;;;;;;;10.00;3.85;;;;;;;;;;5085455;28;20055;-71
2021/09/14 01:00:00;;;;;;;10.77;4.25;;;;;;;;;;5083639;28;20403;-71
2021/09/14 01:02:26;;;;;;;9.50;3.88;;;;;;;;;;5104367;28;20172;-71
2021/09/14 01:04:53;;;;;;;8.05;3.95;;;;;;;;;;5102874;28;20047;-71
2021/09/14 01:07:19;;;;;;;10.65;3.95;;;;;;;;;;5083991;28;20143;-71
2021/09/14 01:09:46;;;;;;;8.13;3.60;;;;;;;;;;5083646;28;20344;-72
2021/09/14 01:12:12;;;;;;;14.80;3.50;;;;;;;;;;5084629;28;20040;-71
2021/09/14 01:14:38;;;;;;;9.05;3.90;;;;;;;;;;5083905;28;20040;-71
2021/09/14 01:17:04;;;;;;;9.43;3.70;;;;;;;;;;5082281;28;20052;-71
2021/09/14 01:19:30;;;;;;;9.27;3.92;;;;;;;;;;5084601;28;20203;-71
2021/09/14 01:21:57;;;;;;;11.68;4.10;;;;;;;;;;5087708;28;20032;-71
2021/09/14 01:24:23;;;;;;;6.55;3.45;;;;;;;;;;5081839;28;20096;-71
2021/09/14 01:26:52;;;;;;;6.68;3.53;;;;;;;;;;5081026;28;20522;-71
2021/09/14 01:32:04;;;;;;;9.48;4.00;;;;;;;;;;5080329;28;20416;-72
2021/09/14 01:34:30;;;;;;;7.80;4.00;;;;;;;;;;5088060;28;20103;-71
2021/09/14 01:36:57;;;;;;;6.85;3.65;;;;;;;;;;5082768;28;20501;-72
2021/09/14 01:39:23;;;;;;;7.22;4.03;;;;;;;;;;5082685;28;20043;-71
2021/09/14 01:41:49;;;;;;;9.90;3.60;;;;;;;;;;5079938;28;20388;-71
2021/09/14 01:44:15;;;;;;;9.15;4.13;;;;;;;;;;5099291;28;20031;-71
2021/09/14 01:46:42;;;;;;;7.03;4.18;;;;;;;;;;5100866;28;20040;-71
2021/09/14 01:49:08;;;;;;;12.25;4.20;;;;;;;;;;5097198;28;20058;-71
2021/09/14 01:51:34;;;;;;;7.55;4.55;;;;;;;;;;5071466;28;20441;-71
2021/09/14 01:54:01;;;;;;;10.82;3.72;;;;;;;;;;5083555;28;20039;-71
2021/09/14 01:56:27;;;;;;;15.07;5.22;;;;;;;;;;5079543;28;20368;-71
2021/09/14 01:58:53;;;;;;;11.48;4.18;;;;;;;;;;5105356;28;20039;-71
2021/09/14 02:01:23;;;;;;;11.25;4.40;;;;;;;;;;5102972;28;20035;-71
2021/09/14 02:03:57;;;;;;;10.57;4.72;;;;;;;;;;5104386;28;20090;-71
2021/09/14 02:06:48;;;;;;;11.18;4.28;;;;;;;;;;5082288;28;20081;-71
2021/09/14 02:34:11;;;;;;;10.85;4.38;;;;;;;;;;5105765;28;20108;-71
2021/09/14 02:39:34;;;;;;;9.38;4.13;;;;;;;;;;5081970;28;20050;-71
2021/09/14 02:42:18;;;;;;;11.30;4.25;;;;;;;;;;5086583;28;20100;-71
2021/09/14 02:45:01;;;;;;;6.95;4.10;;;;;;;;;;5083683;28;20047;-71
2021/09/14 02:58:39;;;;;;;8.05;4.30;;;;;;;;;;5081593;28;20521;-71
2021/09/14 03:01:07;;;;;;;9.75;4.03;;;;;;;;;;5082854;28;20040;-71
2021/09/14 03:03:33;;;;;;;10.95;5.20;;;;;;;;;;5062897;28;20466;-72
2021/09/14 03:05:59;;;;;;;11.77;5.10;;;;;;;;;;5085705;28;20036;-72
2021/09/14 03:08:25;;;;;;;8.13;4.40;;;;;;;;;;5064547;28;20047;-71
2021/09/14 03:10:51;;;;;;;8.23;4.68;;;;;;;;;;5084578;28;20069;-71
2021/09/14 03:13:18;;;;;;;11.18;4.75;;;;;;;;;;5082195;28;20127;-71
2021/09/14 03:15:44;;;;;;;10.70;5.88;;;;;;;;;;5082920;28;20493;-71
2021/09/14 03:18:10;;;;;;;9.07;4.80;;;;;;;;;;5082067;28;20127;-71
2021/09/14 03:20:36;;;;;;;11.52;5.20;;;;;;;;;;5099054;28;20050;-71
2021/09/14 03:23:02;;;;;;;11.40;4.93;;;;;;;;;;5098335;28;20044;-71
2021/09/14 03:25:29;;;;;;;10.02;4.78;;;;;;;;;;5085424;28;20052;-71
2021/09/14 03:27:55;;;;;;;8.18;4.72;;;;;;;;;;5099244;28;20502;-71
2021/09/14 03:30:21;;;;;;;12.00;4.93;;;;;;;;;;5100260;28;20500;-71
2021/09/14 03:32:47;;;;;;;9.18;4.95;;;;;;;;;;5079684;28;20138;-71
2021/09/14 03:35:14;;;;;;;12.07;4.75;;;;;;;;;;5082787;28;20395;-71
2021/09/14 03:37:40;;;;;;;12.55;5.07;;;;;;;;;;5096696;28;20429;-72
2021/09/14 03:40:06;;;;;;;9.55;5.05;;;;;;;;;;5098761;28;20079;-71
2021/09/14 03:42:33;;;;;;;10.68;5.35;;;;;;;;;;5075859;28;20436;-71
2021/09/14 03:44:59;;;;;;;10.95;5.32;;;;;;;;;;5081361;28;20119;-71
2021/09/14 03:47:25;;;;;;;11.80;5.68;;;;;;;;;;5082850;28;20483;-72
2021/09/14 03:49:52;;;;;;;15.27;5.90;;;;;;;;;;5083977;28;20048;-71
2021/09/14 03:52:18;;;;;;;12.60;5.15;;;;;;;;;;5078862;28;20040;-71
2021/09/14 03:54:44;;;;;;;12.35;5.53;;;;;;;;;;5082167;28;20040;-71
2021/09/14 03:57:11;;;;;;;10.73;5.20;;;;;;;;;;5085972;28;20127;-71
2021/09/14 03:59:41;;;;;;;9.00;4.47;;;;;;;;;;5076139;28;20043;-71
2021/09/14 04:02:15;;;;;;;13.63;5.43;;;;;;;;;;5081720;28;20202;-71
2021/09/14 04:04:52;;;;;;;7.28;4.80;;;;;;;;;;5080956;28;20089;-71
2021/09/14 04:07:24;;;;;;;7.50;5.07;;;;;;;;;;5082854;28;20502;-71
2021/09/14 04:09:51;;;;;;;9.57;5.18;;;;;;;;;;5081105;28;21146;-71
2021/09/14 04:12:17;;;;;;;7.85;4.47;;;;;;;;;;5086010;28;20068;-71
2021/09/14 04:14:43;;;;;;;11.55;6.03;;;;;;;;;;5083434;28;20122;-71
2021/09/14 04:17:10;;;;;;;12.50;5.30;;;;;;;;;;5079754;28;20100;-71
2021/09/14 04:19:37;;;;;;;10.02;5.30;;;;;;;;;;5080996;28;20112;-71
2021/09/14 04:22:03;;;;;;;11.25;5.30;;;;;;;;;;5083223;28;20052;-71
2021/09/14 04:24:30;;;;;;;11.80;5.43;;;;;;;;;;5082090;28;20131;-72
2021/09/14 04:26:56;;;;;;;11.25;4.75;;;;;;;;;;5065850;28;20089;-69
2021/09/14 04:29:22;;;;;;;10.00;5.53;;;;;;;;;;5065304;28;20048;-69
2021/09/14 04:31:48;;;;;;;9.80;4.72;;;;;;;;;;5080023;28;20044;-69
2021/09/14 04:34:14;;;;;;;12.02;5.35;;;;;;;;;;5080357;28;20055;-69
2021/09/14 04:36:40;;;;;;;9.32;5.50;;;;;;;;;;5084052;28;20051;-69
2021/09/14 04:39:07;;;;;;;9.70;4.70;;;;;;;;;;5080421;28;20039;-69
2021/09/14 04:41:33;;;;;;;12.90;5.88;;;;;;;;;;5095478;28;20106;-69
2021/09/14 04:43:59;;;;;;;10.15;4.72;;;;;;;;;;5095469;28;20394;-69
2021/09/14 04:46:25;;;;;;;9.13;4.90;;;;;;;;;;5079553;28;20415;-69
2021/09/14 04:48:51;;;;;;;7.55;4.90;;;;;;;;;;5076955;28;20138;-68
2021/09/14 04:51:18;;;;;;;10.50;5.55;;;;;;;;;;5077537;28;20043;-68
2021/09/14 04:53:44;;;;;;;9.85;5.53;;;;;;;;;;5080319;28;20112;-69
2021/09/14 04:56:10;;;;;;;11.75;5.32;;;;;;;;;;5084844;28;20466;-70
2021/09/14 04:58:39;;;;;;;10.20;5.28;;;;;;;;;;5086607;28;20081;-69
2021/09/14 05:01:05;;;;;;;10.68;5.82;;;;;;;;;;5081948;28;20098;-76
2021/09/14 05:03:32;;;;;;;9.88;5.25;;;;;;;;;;5079417;28;20048;-68
2021/09/14 05:05:58;;;;;;;16.38;4.80;;;;;;;;;;5061680;28;20040;-69
2021/09/14 05:08:24;;;;;;;12.98;4.82;;;;;;;;;;5081992;28;20035;-69
2021/09/14 05:10:51;;;;;;;9.32;4.57;;;;;;;;;;5082983;28;20502;-69
2021/09/14 05:13:18;;;;;;;8.85;4.47;;;;;;;;;;5064908;28;20491;-68
2021/09/14 05:15:44;;;;;;;13.88;4.68;;;;;;;;;;5101138;28;20042;-69
2021/09/14 05:18:12;;;;;;;14.05;4.47;;;;;;;;;;5092812;28;20432;-69
2021/09/14 05:20:39;;;;;;;11.45;4.72;;;;;;;;;;5104072;28;20051;-68
2021/09/14 05:23:13;;;;;;;10.85;5.57;;;;;;;;;;5077228;28;20075;-67
2021/09/14 05:25:41;;;;;;;13.95;5.03;;;;;;;;;;5075030;28;20055;-67
2021/09/14 05:28:09;;;;;;;13.63;5.90;;;;;;;;;;5092802;28;20497;-68
2021/09/14 05:30:35;;;;;;;11.18;5.07;;;;;;;;;;5100323;28;20063;-68
2021/09/14 05:33:02;;;;;;;14.55;4.95;;;;;;;;;;5084736;28;20541;-71
2021/09/14 05:35:32;;;;;;;11.05;4.47;;;;;;;;;;5081469;28;20120;-71
2021/09/14 05:37:58;;;;;;;10.27;5.10;;;;;;;;;;5083525;28;20052;-71
2021/09/14 05:40:24;;;;;;;9.57;4.82;;;;;;;;;;5086154;28;20564;-71
2021/09/14 05:42:51;;;;;;;10.30;4.85;;;;;;;;;;5083461;28;20055;-71
2021/09/14 05:45:17;;;;;;;11.57;4.80;;;;;;;;;;5087476;28;20047;-71
2021/09/14 05:47:43;;;;;;;17.13;6.03;;;;;;;;;;5095234;28;20088;-71
2021/09/14 05:50:11;;;;;;;12.02;5.32;;;;;;;;;;5105521;28;20475;-71
2021/09/14 05:52:37;;;;;;;15.20;5.95;;;;;;;;;;5084817;28;20184;-71
2021/09/14 05:55:04;;;;;;;9.65;5.18;;;;;;;;;;5081441;28;20036;-71
2021/09/14 05:57:30;;;;;;;11.18;5.10;;;;;;;;;;5091011;28;20051;-71
2021/09/14 05:59:56;;;;;;;11.60;5.68;;;;;;;;;;5099432;28;20044;-70
2021/09/14 06:02:22;;;;;;;9.48;5.10;;;;;;;;;;5086461;28;20047;-71
2021/09/14 06:04:48;;;;;;;11.40;5.50;;;;;;;;;;5089320;28;20131;-71
2021/09/14 06:07:15;;;;;;;9.10;5.57;;;;;;;;;;5104252;28;20134;-71
2021/09/14 06:09:41;;;;;;;11.07;5.85;;;;;;;;;;5086450;28;20048;-71
2021/09/14 06:12:07;;;;;;;16.17;6.40;;;;;;;;;;5085474;28;20042;-71
2021/09/14 06:14:33;;;;;;;15.20;6.38;;;;;;;;;;5082205;28;20039;-71
2021/09/14 06:16:59;;;;;;;11.82;6.43;;;;;;;;;;5083208;28;20442;-70
2021/09/14 06:19:26;;;;;;;10.77;5.82;;;;;;;;;;5082063;28;20051;-69
2021/09/14 06:21:52;;;;;;;12.77;6.80;;;;;;;;;;5088813;28;20132;-69
2021/09/14 06:24:18;;;;;;;11.88;7.05;;;;;;;;;;5087055;28;20050;-69
2021/09/14 06:26:44;;;;;;;15.00;6.70;;;;;;;;;;5083395;28;20067;-69
2021/09/14 06:29:10;;;;;;;19.15;6.50;;;;;;;;;;5086535;28;20096;-69
2021/09/14 06:31:37;;;;;;;12.63;6.20;;;;;;;;;;5084712;28;20040;-68
2021/09/14 06:34:03;;;;;;;14.27;6.95;;;;;;;;;;5080981;28;20064;-69
2021/09/14 06:36:29;;;;;;;15.68;6.68;;;;;;;;;;5085667;28;20056;-69
2021/09/14 06:38:55;;;;;;;21.00;7.15;;;;;;;;;;5087272;28;20046;-69
2021/09/14 06:41:22;;;;;;;13.32;5.78;;;;;;;;;;5085792;28;20123;-69
2021/09/14 06:43:48;;;;;;;13.38;6.40;;;;;;;;;;5088080;28;20044;-69
2021/09/14 06:46:15;;;;;;;11.82;6.45;;;;;;;;;;5085073;28;20506;-69
2021/09/14 06:48:41;;;;;;;16.67;6.65;;;;;;;;;;5083901;28;20067;-69
2021/09/14 06:51:07;;;;;;;16.65;6.13;;;;;;;;;;5107100;28;20043;-69
2021/09/14 06:53:33;;;;;;;18.80;6.82;;;;;;;;;;5107568;28;20478;-69
2021/09/14 06:55:59;;;;;;;14.18;6.03;;;;;;;;;;5086568;28;20095;-69
2021/09/14 06:58:25;;;;;;;15.98;6.57;;;;;;;;;;5088273;28;20419;-69
2021/09/14 07:00:52;;;;;;;13.02;6.25;;;;;;;;;;5085927;28;20143;-69
2021/09/14 07:03:18;;;;;;;12.50;6.40;;;;;;;;;;5087525;28;20449;-69
2021/09/14 07:05:44;;;;;;;17.80;6.88;;;;;;;;;;5089131;28;20105;-72
2021/09/14 07:08:10;;;;;;;13.57;6.47;;;;;;;;;;5104617;28;20083;-70
2021/09/14 07:10:37;;;;;;;12.43;6.03;;;;;;;;;;5088097;28;20044;-71
2021/09/14 07:13:03;;;;;;;16.42;6.85;;;;;;;;;;5081262;28;20032;-68
2021/09/14 07:15:29;;;;;;;11.52;6.05;;;;;;;;;;5102106;28;20115;-68
2021/09/14 07:17:55;;;;;;;12.57;6.65;;;;;;;;;;5086095;28;20059;-68
2021/09/14 07:20:21;;;;;;;12.75;6.03;;;;;;;;;;5100052;28;20127;-68
2021/09/14 07:22:47;;;;;;;10.63;5.93;;;;;;;;;;5102620;28;20789;-67
2021/09/14 07:25:14;;;;;;;11.85;6.18;;;;;;;;;;5103435;28;20098;-68
2021/09/14 07:27:40;;;;;;;13.48;6.38;;;;;;;;;;5083184;28;20499;-68
2021/09/14 07:30:07;;;;;;;13.95;6.90;;;;;;;;;;5081081;28;20044;-68
2021/09/14 07:32:33;;;;;;;12.43;6.50;;;;;;;;;;5082859;28;20447;-68
2021/09/14 07:34:59;;;;;;;13.57;6.47;;;;;;;;;;5083185;28;20047;-68
2021/09/14 07:37:26;;;;;;;15.10;6.57;;;;;;;;;;5095129;28;20117;-68
2021/09/14 07:39:52;;;;;;;12.00;7.32;;;;;;;;;;5093817;28;20044;-68
2021/09/14 07:42:18;;;;;;;13.52;6.55;;;;;;;;;;5075612;28;20036;-68
2021/09/14 07:44:45;;;;;;;12.07;6.15;;;;;;;;;;5092234;28;20089;-68
2021/09/14 07:47:11;;;;;;;14.15;6.30;;;;;;;;;;5096450;28;20050;-68
2021/09/14 07:49:38;;;;;;;16.85;6.90;;;;;;;;;;5083349;28;20043;-68
2021/09/14 07:52:04;;;;;;;11.32;7.13;;;;;;;;;;5089275;28;20043;-68
2021/09/14 07:54:30;;;;;;;15.48;7.00;;;;;;;;;;5104789;28;20326;-68
2021/09/14 07:56:56;;;;;;;15.73;7.88;;;;;;;;;;5086286;28;20480;-68
2021/09/14 07:59:22;;;;;;;14.32;7.82;;;;;;;;;;5106975;28;20048;-68
2021/09/14 08:01:49;;;;;;;16.52;7.50;;;;;;;;;;5088069;28;20044;-71
2021/09/14 08:04:15;;;;;;;14.57;7.65;;;;;;;;;;5080551;28;20087;-70
2021/09/14 08:06:42;;;;;;;18.38;8.20;;;;;;;;;;5079906;28;20458;-68
2021/09/14 08:09:08;;;;;;;19.27;8.38;;;;;;;;;;5094613;28;20055;-68
2021/09/14 08:11:35;;;;;;;15.05;8.25;;;;;;;;;;5077188;28;20479;-68
2021/09/14 08:14:02;;;;;;;13.60;7.88;;;;;;;;;;5103012;28;20406;-68
2021/09/14 08:16:28;;;;;;;14.90;7.78;;;;;;;;;;5079215;28;20033;-68
2021/09/14 08:18:54;;;;;;;14.75;7.72;;;;;;;;;;5083272;28;20071;-68
2021/09/14 08:21:21;;;;;;;17.48;8.32;;;;;;;;;;5083714;28;20134;-68
2021/09/14 08:23:47;;;;;;;18.00;7.93;;;;;;;;;;5100417;28;20139;-68
2021/09/14 08:26:13;;;;;;;15.88;8.05;;;;;;;;;;5104694;28;20040;-68
2021/09/14 08:28:39;;;;;;;19.15;8.55;;;;;;;;;;5108256;28;20054;-67
2021/09/14 08:31:05;;;;;;;14.20;8.27;;;;;;;;;;5084644;28;20123;-68
2021/09/14 08:33:32;;;;;;;17.55;8.48;;;;;;;;;;5105594;28;20054;-67
2021/09/14 08:35:58;;;;;;;19.33;8.23;;;;;;;;;;5089909;28;20054;-67
2021/09/14 08:38:24;;;;;;;18.83;8.70;;;;;;;;;;5103291;28;20097;-68
2021/09/14 08:40:50;;;;;;;20.02;9.40;;;;;;;;;;5104356;28;20144;-68
2021/09/14 08:43:17;;;;;;;18.77;9.32;;;;;;;;;;5103839;28;20333;-68
2021/09/14 08:45:43;;;;;;;15.45;8.68;;;;;;;;;;5109932;28;20044;-68
2021/09/14 08:48:10;;;;;;;13.93;8.45;;;;;;;;;;5091043;28;20031;-68
2021/09/14 08:50:36;;;;;;;15.18;8.73;;;;;;;;;;5095477;28;20348;-68
2021/09/14 08:53:04;;;;;;;14.27;8.77;;;;;;;;;;5090161;28;20036;-68
2021/09/14 08:55:33;;;;;;;16.98;9.48;;;;;;;;;;5090988;28;20451;-65
2021/09/14 08:57:59;;;;;;;14.50;8.95;;;;;;;;;;5088526;28;20032;-65
2021/09/14 09:00:31;;;;;;;17.55;9.98;;;;;;;;;;5087766;28;20052;-65
2021/09/14 09:02:58;;;;;;;14.40;9.43;;;;;;;;;;5086542;28;20522;-66
2021/09/14 09:05:33;;;;;;;12.00;8.30;;;;;;;;;;5113433;28;20144;-67
2021/09/14 09:08:01;;;;;;;17.15;10.75;;;;;;;;;;5087266;28;20097;-65
2021/09/14 09:10:28;;;;;;;26.58;9.70;;;;;;;;;;5110004;28;20040;-68
2021/09/14 09:12:55;;;;;;;16.42;9.88;;;;;;;;;;5089390;28;20115;-67
2021/09/14 09:15:23;;;;;;;19.52;10.57;;;;;;;;;;5111185;28;20046;-66
2021/09/14 09:18:02;;;;;;;19.02;10.65;;;;;;;;;;5100198;28;20106;-65
2021/09/14 09:20:28;;;;;;;19.52;10.32;;;;;;;;;;5085668;28;20119;-66
2021/09/14 09:22:58;;;;;;;19.60;11.68;;;;;;;;;;5087960;28;20399;-66
2021/09/14 09:25:25;;;;;;;15.77;10.57;;;;;;;;;;5083453;28;20105;-66
2021/09/14 09:28:02;;;;;;;17.00;9.63;;;;;;;;;;5091002;28;20552;-65
2021/09/14 09:30:33;;;;;;;15.48;8.90;;;;;;;;;;5085168;28;20058;-67
2021/09/14 09:33:03;;;;;;;16.98;10.35;;;;;;;;;;5104782;28;20173;-66
2021/09/14 09:35:33;;;;;;;16.45;9.68;;;;;;;;;;5089029;28;20143;-66
2021/09/14 09:37:59;;;;;;;21.33;11.18;;;;;;;;;;5083689;28;20048;-66
2021/09/14 09:40:27;;;;;;;16.50;10.80;;;;;;;;;;5092883;28;20670;-66
2021/09/14 09:42:54;;;;;;;16.88;10.05;;;;;;;;;;5094259;28;20040;-66
2021/09/14 09:45:20;;;;;;;22.23;10.88;;;;;;;;;;5105679;28;20040;-66
2021/09/14 09:47:48;;;;;;;16.58;10.55;;;;;;;;;;5095191;28;20036;-66
2021/09/14 09:50:14;;;;;;;17.40;11.00;;;;;;;;;;5075081;28;20048;-66
2021/09/14 09:52:41;;;;;;;18.48;11.45;;;;;;;;;;5093514;28;20050;-66
2021/09/14 09:55:08;;;;;;;17.38;10.18;;;;;;;;;;5099496;28;20387;-66
2021/09/14 09:57:34;;;;;;;17.98;10.23;;;;;;;;;;5095301;28;20087;-66
2021/09/14 10:00:00;;;;;;;13.25;9.32;;;;;;;;;;5084225;28;20043;-66
2021/09/14 10:02:27;;;;;;;16.13;9.65;;;;;;;;;;5097107;28;20371;-66
2021/09/14 10:05:00;;;;;;;16.10;9.18;;;;;;;;;;5082136;28;20040;-66
2021/09/14 10:07:28;;;;;;;15.10;9.75;;;;;;;;;;5099931;28;20348;-66
2021/09/14 10:09:55;;;;;;;15.27;9.65;;;;;;;;;;5096041;28;20119;-66
2021/09/14 10:12:23;;;;;;;13.63;8.75;;;;;;;;;;5090791;28;20063;-66
2021/09/14 10:15:05;;;;;;;17.98;8.70;;;;;;;;;;5095517;28;20123;-68
2021/09/14 10:17:32;;;;;;;14.50;8.85;;;;;;;;;;5083389;28;20047;-65
2021/09/14 10:20:10;;;;;;;15.30;8.02;;;;;;;;;;5103686;28;20040;-68
2021/09/14 10:22:36;;;;;;;12.88;8.43;;;;;;;;;;5095823;28;20066;-66
2021/09/14 10:25:04;;;;;;;13.95;9.10;;;;;;;;;;5106592;28;20050;-66
2021/09/14 10:27:41;;;;;;;14.30;8.55;;;;;;;;;;5096185;28;20098;-66
2021/09/14 10:30:09;;;;;;;14.20;8.13;;;;;;;;;;5086646;28;20032;-66
2021/09/14 10:32:40;;;;;;;12.40;8.60;;;;;;;;;;5105399;28;20048;-66
2021/09/14 10:35:06;;;;;;;12.85;8.95;;;;;;;;;;5103997;28;20062;-66
2021/09/14 10:37:34;;;;;;;13.00;8.07;;;;;;;;;;5081982;28;20074;-66
2021/09/14 10:40:08;;;;;;;12.98;8.98;;;;;;;;;;5100715;28;20040;-66
2021/09/14 10:42:37;;;;;;;12.38;8.35;;;;;;;;;;5089664;28;20374;-67
2021/09/14 10:45:07;;;;;;;13.20;7.85;;;;;;;;;;5111016;28;20058;-69
2021/09/14 10:47:39;;;;;;;12.40;8.55;;;;;;;;;;5080310;28;20040;-67
2021/09/14 10:50:05;;;;;;;11.93;7.15;;;;;;;;;;5088926;28;20448;-69
2021/09/14 10:52:33;;;;;;;13.07;8.02;;;;;;;;;;5085441;28;20051;-69
2021/09/14 10:55:04;;;;;;;13.77;7.55;;;;;;;;;;5085998;28;20092;-69
2021/09/14 10:57:32;;;;;;;11.60;8.20;;;;;;;;;;5102848;28;20086;-69
2021/09/14 10:59:58;;;;;;;11.88;7.65;;;;;;;;;;5084431;28;20491;-68
2021/09/14 11:02:25;;;;;;;11.32;7.85;;;;;;;;;;5088228;28;20072;-69
2021/09/14 11:04:51;;;;;;;11.30;7.00;;;;;;;;;;5106936;28;20052;-69
2021/09/14 11:07:20;;;;;;;13.27;7.65;;;;;;;;;;5086267;28;20111;-69
2021/09/14 11:09:55;;;;;;;9.73;6.97;;;;;;;;;;5081428;28;20051;-69
2021/09/14 11:12:23;;;;;;;12.90;7.07;;;;;;;;;;5079451;28;20095;-69
2021/09/14 11:14:50;;;;;;;10.43;7.38;;;;;;;;;;5105128;28;20351;-69
2021/09/14 11:17:23;;;;;;;8.90;6.00;;;;;;;;;;5095410;28;20055;-69
2021/09/14 11:19:51;;;;;;;10.63;7.00;;;;;;;;;;5085500;28;20070;-68
2021/09/14 11:22:29;;;;;;;10.38;6.25;;;;;;;;;;5087752;28;20050;-69
2021/09/14 11:24:55;;;;;;;9.38;6.70;;;;;;;;;;5094783;28;20051;-68
2021/09/14 11:27:23;;;;;;;11.93;5.68;;;;;;;;;;5104221;28;20047;-69
2021/09/14 11:29:49;;;;;;;9.70;6.90;;;;;;;;;;5078960;28;20656;-69
2021/09/14 11:32:16;;;;;;;10.60;6.55;;;;;;;;;;5066615;28;20043;-69
2021/09/14 11:34:42;;;;;;;9.93;6.75;;;;;;;;;;5081339;28;20126;-69
2021/09/14 11:37:08;;;;;;;9.15;7.72;;;;;;;;;;5083668;28;20487;-69
2021/09/14 11:39:38;;;;;;;11.18;6.53;;;;;;;;;;5079158;28;20041;-69
2021/09/14 11:42:08;;;;;;;10.55;6.80;;;;;;;;;;5100493;28;20048;-68
2021/09/14 11:44:34;;;;;;;9.60;6.43;;;;;;;;;;5084447;28;20036;-69
2021/09/14 11:47:08;;;;;;;8.48;6.50;;;;;;;;;;5081843;28;20056;-69
2021/09/14 11:49:34;;;;;;;11.93;6.78;;;;;;;;;;5082190;28;20392;-68
2021/09/14 11:52:01;;;;;;;9.60;7.03;;;;;;;;;;5077755;28;20043;-69
2021/09/14 11:54:34;;;;;;;10.68;6.82;;;;;;;;;;5084239;28;20040;-69
2021/09/14 11:57:01;;;;;;;13.18;7.88;;;;;;;;;;5086508;28;20028;-69
2021/09/14 11:59:32;;;;;;;9.07;7.43;;;;;;;;;;5098979;28;20066;-69
2021/09/14 12:01:59;;;;;;;10.85;6.65;;;;;;;;;;5096728;28;20050;-69
2021/09/14 12:04:25;;;;;;;11.07;6.85;;;;;;;;;;5075952;28;20055;-69
2021/09/14 12:06:53;;;;;;;12.05;7.60;;;;;;;;;;5081484;28;20048;-69
2021/09/14 12:09:20;;;;;;;11.10;6.97;;;;;;;;;;5099758;28;20050;-69
2021/09/14 12:11:46;;;;;;;11.35;7.15;;;;;;;;;;5102308;28;20083;-69
2021/09/14 12:14:18;;;;;;;11.88;6.75;;;;;;;;;;5099395;28;20081;-69
2021/09/14 12:16:44;;;;;;;9.30;7.10;;;;;;;;;;5084327;28;20039;-69
2021/09/14 12:19:12;;;;;;;10.55;7.40;;;;;;;;;;5102948;28;20048;-69
2021/09/14 12:21:39;;;;;;;8.70;6.63;;;;;;;;;;5080494;28;20048;-69
2021/09/14 12:24:05;;;;;;;9.05;7.60;;;;;;;;;;5101163;28;20122;-69
2021/09/14 12:26:38;;;;;;;9.15;6.72;;;;;;;;;;5077759;28;20075;-70
2021/09/14 12:29:04;;;;;;;9.18;6.78;;;;;;;;;;5084203;28;20075;-69
2021/09/14 12:31:31;;;;;;;11.98;6.88;;;;;;;;;;5079171;28;20052;-70
2021/09/14 12:33:58;;;;;;;10.13;7.40;;;;;;;;;;5102075;28;20097;-69
2021/09/14 12:36:25;;;;;;;10.45;7.00;;;;;;;;;;5079875;28;20051;-70
2021/09/14 12:38:51;;;;;;;9.85;7.00;;;;;;;;;;5100808;28;20119;-69
2021/09/14 12:41:18;;;;;;;10.27;7.03;;;;;;;;;;5082223;28;20398;-69
2021/09/14 12:43:45;;;;;;;10.40;7.00;;;;;;;;;;5082177;28;20495;-70
2021/09/14 12:46:11;;;;;;;9.63;6.88;;;;;;;;;;5078826;28;20043;-69
2021/09/14 12:48:38;;;;;;;8.90;7.07;;;;;;;;;;5085581;28;20043;-69
2021/09/14 12:51:05;;;;;;;12.80;7.60;;;;;;;;;;5077409;28;20173;-69
2021/09/14 12:53:31;;;;;;;12.15;7.57;;;;;;;;;;5079529;28;20168;-69
2021/09/14 12:55:57;;;;;;;9.75;6.95;;;;;;;;;;5079617;28;20044;-69
2021/09/14 12:58:24;;;;;;;11.73;6.43;;;;;;;;;;5095285;28;20043;-70
2021/09/14 13:00:50;;;;;;;9.43;5.97;;;;;;;;;;5079002;28;20056;-70
2021/09/14 13:03:16;;;;;;;11.70;6.45;;;;;;;;;;5082893;28;20036;-70
2021/09/14 13:05:43;;;;;;;7.80;5.75;;;;;;;;;;5081619;28;20122;-70
2021/09/14 13:08:09;;;;;;;7.50;5.32;;;;;;;;;;5076709;28;20057;-69
2021/09/14 13:10:36;;;;;;;9.10;5.30;;;;;;;;;;5082051;28;20487;-69
2021/09/14 13:18:33;;;;;;;8.98;5.78;;;;;;;;;;5098321;28;20036;-69
2021/09/14 13:21:00;;;;;;;9.27;6.25;;;;;;;;;;5087415;28;20372;-69
2021/09/14 13:23:26;;;;;;;10.82;6.35;;;;;;;;;;5084010;28;20043;-69
2021/09/14 13:25:52;;;;;;;7.80;6.10;;;;;;;;;;5084320;28;20048;-69
2021/09/14 13:28:19;;;;;;;11.60;5.68;;;;;;;;;;5100988;28;20180;-69
2021/09/14 13:30:45;;;;;;;10.00;6.10;;;;;;;;;;5097472;28;20104;-68
2021/09/14 13:33:11;;;;;;;9.85;6.30;;;;;;;;;;5102432;28;20056;-68
2021/09/14 13:35:38;;;;;;;10.13;6.18;;;;;;;;;;5085850;28;20056;-68
2021/09/14 13:38:04;;;;;;;8.60;4.95;;;;;;;;;;5103417;28;20373;-67
2021/09/14 13:40:30;;;;;;;8.35;5.60;;;;;;;;;;5101740;28;21614;-68
2021/09/14 13:42:57;;;;;;;7.28;5.32;;;;;;;;;;5085510;28;20047;-68
2021/09/14 13:48:27;;;;;;;9.48;5.93;;;;;;;;;;5085137;28;20395;-68
2021/09/14 13:50:53;;;;;;;9.95;6.75;;;;;;;;;;5099522;28;20044;-68
2021/09/14 13:53:20;;;;;;;11.48;6.03;;;;;;;;;;5085478;28;20058;-68
2021/09/14 13:55:46;;;;;;;8.45;4.90;;;;;;;;;;5104875;28;20126;-68
2021/09/14 13:58:13;;;;;;;10.43;5.30;;;;;;;;;;5082218;28;20450;-68
2021/09/14 14:00:39;;;;;;;9.88;5.65;;;;;;;;;;5103138;28;20123;-68
2021/09/14 14:03:05;;;;;;;10.05;5.80;;;;;;;;;;5084664;28;20039;-68
2021/09/14 14:05:31;;;;;;;9.38;6.05;;;;;;;;;;5098340;28;20499;-68
2021/09/14 14:07:58;;;;;;;9.23;6.65;;;;;;;;;;5085444;28;20488;-68
2021/09/14 14:10:26;;;;;;;8.07;5.40;;;;;;;;;;5084687;28;20036;-68
2021/09/14 14:12:53;;;;;;;10.35;6.45;;;;;;;;;;5098942;28;20051;-68
2021/09/14 14:15:19;;;;;;;7.82;5.90;;;;;;;;;;5082898;28;20447;-67
2021/09/14 14:17:45;;;;;;;10.13;6.32;;;;;;;;;;5105761;28;20518;-68
2021/09/14 14:20:12;;;;;;;10.00;6.13;;;;;;;;;;5084828;28;20059;-68
2021/09/14 14:22:38;;;;;;;10.23;5.28;;;;;;;;;;5088468;28;20036;-68
2021/09/14 14:25:05;;;;;;;8.68;5.82;;;;;;;;;;5103108;28;20481;-68
2021/09/14 14:27:31;;;;;;;8.55;6.30;;;;;;;;;;5086095;28;20040;-67
2021/09/14 14:29:58;;;;;;;11.43;6.47;;;;;;;;;;5086786;28;20126;-69
2021/09/14 14:32:24;;;;;;;12.88;6.45;;;;;;;;;;5082900;28;20044;-72
2021/09/14 14:34:51;;;;;;;9.82;6.97;;;;;;;;;;5087789;28;20548;-68
2021/09/14 14:37:17;;;;;;;11.23;6.28;;;;;;;;;;5099802;28;20036;-68
2021/09/14 14:39:44;;;;;;;8.73;6.18;;;;;;;;;;5099601;28;20138;-68
2021/09/14 14:42:11;;;;;;;8.75;5.88;;;;;;;;;;5103024;28;20043;-68
2021/09/14 14:44:37;;;;;;;9.45;6.90;;;;;;;;;;5086388;28;20048;-68
2021/09/14 14:47:04;;;;;;;10.25;6.90;;;;;;;;;;5083896;28;20044;-68
2021/09/14 14:49:30;;;;;;;8.65;6.30;;;;;;;;;;5099312;28;20152;-68
2021/09/14 14:51:56;;;;;;;12.65;7.60;;;;;;;;;;5099530;28;20040;-67
2021/09/14 14:54:23;;;;;;;10.50;6.18;;;;;;;;;;5081558;28;20051;-67
2021/09/14 14:56:49;;;;;;;8.20;6.15;;;;;;;;;;5106383;28;20472;-67
2021/09/14 14:59:15;;;;;;;10.85;6.68;;;;;;;;;;5104125;28;20097;-69
2021/09/14 15:01:41;;;;;;;10.65;6.50;;;;;;;;;;5084779;28;20044;-67
2021/09/14 15:04:07;;;;;;;9.60;6.63;;;;;;;;;;5083646;28;20112;-67
2021/09/14 15:06:34;;;;;;;9.10;6.15;;;;;;;;;;5102675;28;20036;-67
2021/09/14 15:09:00;;;;;;;9.05;5.95;;;;;;;;;;5100823;28;20036;-69
2021/09/14 15:11:26;;;;;;;10.88;6.95;;;;;;;;;;5087229;28;20126;-69
2021/09/14 15:13:52;;;;;;;9.57;6.13;;;;;;;;;;5081694;28;20126;-69
2021/09/14 15:16:18;;;;;;;10.85;6.60;;;;;;;;;;5103689;28;20745;-69
2021/09/14 15:18:45;;;;;;;9.23;6.57;;;;;;;;;;5088509;28;20403;-69
2021/09/14 15:21:11;;;;;;;9.32;6.38;;;;;;;;;;5098129;28;20048;-69
2021/09/14 15:23:37;;;;;;;9.65;6.43;;;;;;;;;;5079927;28;20051;-69